Terminal Aerodrome Forecast
Issued by NWS

Home | Current Version | Previous Version | Text Only | Print | Product List | Glossary On
Versions: 1 2 3 4 5 6 7 8 9 10 11 12 13 14 15 16
000
FTUS46 KMTR 280500
TAFOAK
TAF
KOAK 280531Z 2806/2912 29010KT P6SM SCT009
      TEMPO 2806/2808 BKN007
     FM280800 29007KT P6SM OVC007
     FM281700 25014G18KT P6SM FEW012
     FM281900 29017G27KT P6SM FEW015 SCT250
     FM290300 29017KT P6SM SCT012 BKN250=

USA.gov is the U.S. government's official web portal to all federal, state and local government web resources and services.